sensor_id;sensor_type;location;lat;lon;timestamp;P1;durP1;ratioP1;P2;durP2;ratioP2
11334;SDS011;5722;42.620;23.374;2022-10-31T00:01:38;3.20;;;2.87;;
11334;SDS011;5722;42.620;23.374;2022-10-31T00:07:24;4.87;;;2.83;;
11334;SDS011;5722;42.620;23.374;2022-10-31T00:09:53;4.60;;;3.07;;
11334;SDS011;5722;42.620;23.374;2022-10-31T00:12:27;3.73;;;2.67;;
11334;SDS011;5722;42.620;23.374;2022-10-31T00:14:59;4.13;;;3.00;;
11334;SDS011;5722;42.620;23.374;2022-10-31T00:17:34;4.13;;;2.97;;
11334;SDS011;5722;42.620;23.374;2022-10-31T00:20:02;3.57;;;2.60;;
11334;SDS011;5722;42.620;23.374;2022-10-31T00:22:32;7.73;;;2.90;;
11334;SDS011;5722;42.620;23.374;2022-10-31T00:25:02;4.00;;;2.90;;
11334;SDS011;5722;42.620;23.374;2022-10-31T00:27:29;5.60;;;2.90;;
11334;SDS011;5722;42.620;23.374;2022-10-31T00:30:06;6.07;;;3.03;;
11334;SDS011;5722;42.620;23.374;2022-10-31T00:32:44;3.87;;;2.80;;
11334;SDS011;5722;42.620;23.374;2022-10-31T00:35:15;8.40;;;3.30;;
11334;SDS011;5722;42.620;23.374;2022-10-31T00:37:47;5.60;;;2.90;;
11334;SDS011;5722;42.620;23.374;2022-10-31T00:40:30;4.70;;;3.13;;
11334;SDS011;5722;42.620;23.374;2022-10-31T00:43:09;3.70;;;2.83;;
11334;SDS011;5722;42.620;23.374;2022-10-31T00:45:37;6.10;;;3.10;;
11334;SDS011;5722;42.620;23.374;2022-10-31T00:48:15;4.90;;;3.40;;
11334;SDS011;5722;42.620;23.374;2022-10-31T00:50:43;5.37;;;3.20;;
11334;SDS011;5722;42.620;23.374;2022-10-31T00:53:13;5.43;;;3.23;;
11334;SDS011;5722;42.620;23.374;2022-10-31T00:55:49;6.97;;;3.40;;
11334;SDS011;5722;42.620;23.374;2022-10-31T00:58:20;4.73;;;2.97;;
11334;SDS011;5722;42.620;23.374;2022-10-31T01:00:59;5.60;;;3.17;;
11334;SDS011;5722;42.620;23.374;2022-10-31T01:03:41;4.80;;;2.83;;
11334;SDS011;5722;42.620;23.374;2022-10-31T01:06:23;7.90;;;2.90;;
11334;SDS011;5722;42.620;23.374;2022-10-31T01:11:36;5.57;;;3.30;;
11334;SDS011;5722;42.620;23.374;2022-10-31T01:14:03;5.63;;;3.20;;
11334;SDS011;5722;42.620;23.374;2022-10-31T01:16:41;5.77;;;3.20;;
11334;SDS011;5722;42.620;23.374;2022-10-31T01:19:13;7.97;;;3.10;;
11334;SDS011;5722;42.620;23.374;2022-10-31T01:21:44;4.20;;;2.73;;
11334;SDS011;5722;42.620;23.374;2022-10-31T01:24:28;4.70;;;3.10;;
11334;SDS011;5722;42.620;23.374;2022-10-31T01:26:58;6.10;;;3.10;;
11334;SDS011;5722;42.620;23.374;2022-10-31T01:29:27;4.70;;;3.00;;
11334;SDS011;5722;42.620;23.374;2022-10-31T01:32:01;4.77;;;3.03;;
11334;SDS011;5722;42.620;23.374;2022-10-31T01:37:26;7.17;;;3.17;;
11334;SDS011;5722;42.620;23.374;2022-10-31T01:39:53;5.77;;;2.90;;
11334;SDS011;5722;42.620;23.374;2022-10-31T01:42:30;7.67;;;3.40;;
11334;SDS011;5722;42.620;23.374;2022-10-31T01:45:00;5.00;;;2.97;;
11334;SDS011;5722;42.620;23.374;2022-10-31T01:47:34;5.00;;;3.33;;
11334;SDS011;5722;42.620;23.374;2022-10-31T01:50:09;7.50;;;4.17;;
11334;SDS011;5722;42.620;23.374;2022-10-31T01:52:49;5.83;;;3.43;;
11334;SDS011;5722;42.620;23.374;2022-10-31T01:58:06;7.00;;;3.80;;
11334;SDS011;5722;42.620;23.374;2022-10-31T02:00:46;5.03;;;3.47;;
11334;SDS011;5722;42.620;23.374;2022-10-31T02:03:20;5.70;;;3.80;;
11334;SDS011;5722;42.620;23.374;2022-10-31T02:05:57;6.73;;;3.83;;
11334;SDS011;5722;42.620;23.374;2022-10-31T02:08:36;8.73;;;3.70;;
11334;SDS011;5722;42.620;23.374;2022-10-31T02:11:14;7.07;;;3.73;;
11334;SDS011;5722;42.620;23.374;2022-10-31T02:13:57;7.33;;;4.30;;
11334;SDS011;5722;42.620;23.374;2022-10-31T02:16:26;6.47;;;3.50;;
11334;SDS011;5722;42.620;23.374;2022-10-31T02:18:58;6.20;;;3.70;;
11334;SDS011;5722;42.620;23.374;2022-10-31T02:21:26;5.03;;;3.37;;
11334;SDS011;5722;42.620;23.374;2022-10-31T02:26:48;7.30;;;3.63;;
11334;SDS011;5722;42.620;23.374;2022-10-31T02:32:26;7.07;;;3.67;;
11334;SDS011;5722;42.620;23.374;2022-10-31T02:35:00;6.97;;;3.80;;
11334;SDS011;5722;42.620;23.374;2022-10-31T02:37:34;4.97;;;3.13;;
11334;SDS011;5722;42.620;23.374;2022-10-31T02:40:13;7.17;;;3.53;;
11334;SDS011;5722;42.620;23.374;2022-10-31T02:42:46;6.07;;;3.50;;
11334;SDS011;5722;42.620;23.374;2022-10-31T02:45:21;9.50;;;4.03;;
11334;SDS011;5722;42.620;23.374;2022-10-31T02:47:58;7.63;;;3.43;;
11334;SDS011;5722;42.620;23.374;2022-10-31T02:50:37;5.53;;;3.70;;
11334;SDS011;5722;42.620;23.374;2022-10-31T02:53:13;8.43;;;4.50;;
11334;SDS011;5722;42.620;23.374;2022-10-31T02:55:49;7.43;;;4.37;;
11334;SDS011;5722;42.620;23.374;2022-10-31T02:58:24;4.57;;;3.47;;
11334;SDS011;5722;42.620;23.374;2022-10-31T03:07:00;7.87;;;3.77;;
11334;SDS011;5722;42.620;23.374;2022-10-31T03:12:17;8.13;;;4.30;;
11334;SDS011;5722;42.620;23.374;2022-10-31T03:14:58;6.70;;;4.13;;
11334;SDS011;5722;42.620;23.374;2022-10-31T03:17:33;6.37;;;4.17;;
11334;SDS011;5722;42.620;23.374;2022-10-31T03:20:04;7.77;;;4.40;;
11334;SDS011;5722;42.620;23.374;2022-10-31T03:22:35;8.80;;;4.40;;
11334;SDS011;5722;42.620;23.374;2022-10-31T03:25:06;8.87;;;4.57;;
11334;SDS011;5722;42.620;23.374;2022-10-31T03:27:50;7.57;;;4.60;;
11334;SDS011;5722;42.620;23.374;2022-10-31T03:30:24;8.93;;;4.77;;
11334;SDS011;5722;42.620;23.374;2022-10-31T03:32:52;8.83;;;4.80;;
11334;SDS011;5722;42.620;23.374;2022-10-31T03:35:27;12.63;;;4.90;;
11334;SDS011;5722;42.620;23.374;2022-10-31T03:37:58;6.47;;;4.60;;
11334;SDS011;5722;42.620;23.374;2022-10-31T03:40:28;9.13;;;4.73;;
11334;SDS011;5722;42.620;23.374;2022-10-31T03:43:04;6.77;;;4.97;;
11334;SDS011;5722;42.620;23.374;2022-10-31T03:48:22;8.43;;;4.53;;
11334;SDS011;5722;42.620;23.374;2022-10-31T03:50:57;7.87;;;4.73;;
11334;SDS011;5722;42.620;23.374;2022-10-31T03:53:33;7.73;;;4.90;;
11334;SDS011;5722;42.620;23.374;2022-10-31T03:56:02;8.97;;;5.00;;
11334;SDS011;5722;42.620;23.374;2022-10-31T03:58:32;7.40;;;4.80;;
11334;SDS011;5722;42.620;23.374;2022-10-31T04:01:15;14.00;;;5.17;;
11334;SDS011;5722;42.620;23.374;2022-10-31T04:09:30;11.63;;;5.27;;
11334;SDS011;5722;42.620;23.374;2022-10-31T04:11:59;7.83;;;5.00;;
11334;SDS011;5722;42.620;23.374;2022-10-31T04:14:31;8.13;;;5.27;;
11334;SDS011;5722;42.620;23.374;2022-10-31T04:17:02;8.53;;;5.97;;
11334;SDS011;5722;42.620;23.374;2022-10-31T04:19:47;9.93;;;5.90;;
11334;SDS011;5722;42.620;23.374;2022-10-31T04:22:22;7.83;;;6.40;;
11334;SDS011;5722;42.620;23.374;2022-10-31T04:25:06;10.43;;;6.83;;
11334;SDS011;5722;42.620;23.374;2022-10-31T04:27:37;13.13;;;7.20;;
11334;SDS011;5722;42.620;23.374;2022-10-31T04:30:09;8.93;;;6.50;;
11334;SDS011;5722;42.620;23.374;2022-10-31T04:32:43;9.50;;;5.77;;
11334;SDS011;5722;42.620;23.374;2022-10-31T04:35:22;11.73;;;7.63;;
11334;SDS011;5722;42.620;23.374;2022-10-31T04:38:11;7.47;;;5.87;;
11334;SDS011;5722;42.620;23.374;2022-10-31T04:40:44;8.87;;;6.77;;
11334;SDS011;5722;42.620;23.374;2022-10-31T04:43:15;7.67;;;5.50;;
11334;SDS011;5722;42.620;23.374;2022-10-31T04:46:05;7.03;;;5.50;;
11334;SDS011;5722;42.620;23.374;2022-10-31T04:48:42;7.20;;;5.37;;
11334;SDS011;5722;42.620;23.374;2022-10-31T04:51:10;7.07;;;5.00;;
11334;SDS011;5722;42.620;23.374;2022-10-31T04:53:42;6.63;;;4.97;;
11334;SDS011;5722;42.620;23.374;2022-10-31T04:56:12;11.00;;;5.00;;
11334;SDS011;5722;42.620;23.374;2022-10-31T04:58:40;7.37;;;4.80;;
11334;SDS011;5722;42.620;23.374;2022-10-31T05:01:13;8.60;;;4.90;;
11334;SDS011;5722;42.620;23.374;2022-10-31T05:03:42;6.93;;;5.40;;
11334;SDS011;5722;42.620;23.374;2022-10-31T05:06:24;10.43;;;5.00;;
11334;SDS011;5722;42.620;23.374;2022-10-31T05:08:56;7.50;;;4.50;;
11334;SDS011;5722;42.620;23.374;2022-10-31T05:11:28;8.93;;;5.13;;
11334;SDS011;5722;42.620;23.374;2022-10-31T05:13:57;7.47;;;4.90;;
11334;SDS011;5722;42.620;23.374;2022-10-31T05:16:29;7.03;;;4.60;;
11334;SDS011;5722;42.620;23.374;2022-10-31T05:18:57;9.90;;;5.30;;
11334;SDS011;5722;42.620;23.374;2022-10-31T05:21:28;12.80;;;5.43;;
11334;SDS011;5722;42.620;23.374;2022-10-31T05:23:57;9.13;;;5.43;;
11334;SDS011;5722;42.620;23.374;2022-10-31T05:26:27;7.90;;;4.90;;
11334;SDS011;5722;42.620;23.374;2022-10-31T05:28:57;19.30;;;5.47;;
11334;SDS011;5722;42.620;23.374;2022-10-31T05:31:30;10.17;;;5.33;;
11334;SDS011;5722;42.620;23.374;2022-10-31T05:33:59;11.80;;;5.03;;
11334;SDS011;5722;42.620;23.374;2022-10-31T05:36:33;10.17;;;5.30;;
11334;SDS011;5722;42.620;23.374;2022-10-31T05:39:01;8.20;;;4.97;;
11334;SDS011;5722;42.620;23.374;2022-10-31T05:41:31;11.03;;;4.80;;
11334;SDS011;5722;42.620;23.374;2022-10-31T05:44:08;11.93;;;5.07;;
11334;SDS011;5722;42.620;23.374;2022-10-31T05:46:38;9.43;;;5.53;;
11334;SDS011;5722;42.620;23.374;2022-10-31T05:49:11;9.47;;;5.50;;
11334;SDS011;5722;42.620;23.374;2022-10-31T05:52:00;8.63;;;5.07;;
11334;SDS011;5722;42.620;23.374;2022-10-31T05:54:33;7.83;;;4.97;;
11334;SDS011;5722;42.620;23.374;2022-10-31T05:57:04;10.23;;;5.60;;
11334;SDS011;5722;42.620;23.374;2022-10-31T05:59:47;11.23;;;4.87;;
11334;SDS011;5722;42.620;23.374;2022-10-31T06:02:28;19.33;;;6.17;;
11334;SDS011;5722;42.620;23.374;2022-10-31T06:05:09;10.40;;;5.40;;
11334;SDS011;5722;42.620;23.374;2022-10-31T06:07:38;19.53;;;6.27;;
11334;SDS011;5722;42.620;23.374;2022-10-31T06:10:12;12.17;;;6.00;;
11334;SDS011;5722;42.620;23.374;2022-10-31T06:12:47;10.23;;;5.63;;
11334;SDS011;5722;42.620;23.374;2022-10-31T06:15:27;11.67;;;5.47;;
11334;SDS011;5722;42.620;23.374;2022-10-31T06:18:07;13.47;;;5.80;;
11334;SDS011;5722;42.620;23.374;2022-10-31T06:20:58;11.90;;;7.33;;
11334;SDS011;5722;42.620;23.374;2022-10-31T06:23:25;12.07;;;6.07;;
11334;SDS011;5722;42.620;23.374;2022-10-31T06:26:02;10.63;;;6.60;;
11334;SDS011;5722;42.620;23.374;2022-10-31T06:28:34;11.47;;;6.57;;
11334;SDS011;5722;42.620;23.374;2022-10-31T06:31:35;13.00;;;6.63;;
11334;SDS011;5722;42.620;23.374;2022-10-31T06:34:02;13.30;;;6.70;;
11334;SDS011;5722;42.620;23.374;2022-10-31T06:36:34;13.17;;;6.67;;
11334;SDS011;5722;42.620;23.374;2022-10-31T06:39:05;9.10;;;6.57;;
11334;SDS011;5722;42.620;23.374;2022-10-31T06:41:40;12.47;;;6.23;;
11334;SDS011;5722;42.620;23.374;2022-10-31T06:44:08;14.53;;;5.67;;
11334;SDS011;5722;42.620;23.374;2022-10-31T06:46:47;9.43;;;5.70;;
11334;SDS011;5722;42.620;23.374;2022-10-31T06:49:14;12.87;;;6.77;;
11334;SDS011;5722;42.620;23.374;2022-10-31T06:51:46;16.40;;;7.03;;
11334;SDS011;5722;42.620;23.374;2022-10-31T06:54:14;9.50;;;7.10;;
11334;SDS011;5722;42.620;23.374;2022-10-31T06:56:44;12.60;;;6.77;;
11334;SDS011;5722;42.620;23.374;2022-10-31T06:59:14;17.03;;;6.67;;
11334;SDS011;5722;42.620;23.374;2022-10-31T07:01:48;9.90;;;6.93;;
11334;SDS011;5722;42.620;23.374;2022-10-31T07:04:25;13.83;;;7.40;;
11334;SDS011;5722;42.620;23.374;2022-10-31T07:06:55;13.90;;;8.40;;
11334;SDS011;5722;42.620;23.374;2022-10-31T07:09:26;13.17;;;7.73;;
11334;SDS011;5722;42.620;23.374;2022-10-31T07:11:57;15.33;;;9.70;;
11334;SDS011;5722;42.620;23.374;2022-10-31T07:14:24;12.93;;;8.67;;
11334;SDS011;5722;42.620;23.374;2022-10-31T07:17:02;14.93;;;9.00;;
11334;SDS011;5722;42.620;23.374;2022-10-31T07:19:30;15.20;;;8.40;;
11334;SDS011;5722;42.620;23.374;2022-10-31T07:22:03;16.97;;;8.87;;
11334;SDS011;5722;42.620;23.374;2022-10-31T07:27:54;14.70;;;10.30;;
11334;SDS011;5722;42.620;23.374;2022-10-31T07:30:22;16.93;;;10.63;;
11334;SDS011;5722;42.620;23.374;2022-10-31T07:32:58;17.93;;;10.60;;
11334;SDS011;5722;42.620;23.374;2022-10-31T07:35:27;17.07;;;11.67;;
11334;SDS011;5722;42.620;23.374;2022-10-31T07:38:10;14.80;;;11.37;;
11334;SDS011;5722;42.620;23.374;2022-10-31T07:40:41;16.33;;;11.03;;
11334;SDS011;5722;42.620;23.374;2022-10-31T07:43:11;15.23;;;10.70;;
11334;SDS011;5722;42.620;23.374;2022-10-31T07:45:59;15.57;;;10.87;;
11334;SDS011;5722;42.620;23.374;2022-10-31T07:48:30;16.60;;;10.83;;
11334;SDS011;5722;42.620;23.374;2022-10-31T07:51:01;14.47;;;11.10;;
11334;SDS011;5722;42.620;23.374;2022-10-31T07:53:37;20.10;;;11.07;;
11334;SDS011;5722;42.620;23.374;2022-10-31T07:56:04;15.60;;;12.00;;
11334;SDS011;5722;42.620;23.374;2022-10-31T07:58:33;20.27;;;11.33;;
11334;SDS011;5722;42.620;23.374;2022-10-31T08:01:03;21.70;;;10.63;;
11334;SDS011;5722;42.620;23.374;2022-10-31T08:03:35;20.57;;;11.87;;
11334;SDS011;5722;42.620;23.374;2022-10-31T08:06:06;19.00;;;11.10;;
11334;SDS011;5722;42.620;23.374;2022-10-31T08:08:35;21.80;;;11.20;;
11334;SDS011;5722;42.620;23.374;2022-10-31T08:11:02;19.20;;;11.70;;
11334;SDS011;5722;42.620;23.374;2022-10-31T08:13:31;20.13;;;11.23;;
11334;SDS011;5722;42.620;23.374;2022-10-31T08:16:05;17.23;;;10.83;;
11334;SDS011;5722;42.620;23.374;2022-10-31T08:18:41;14.53;;;11.53;;
11334;SDS011;5722;42.620;23.374;2022-10-31T08:21:08;15.57;;;10.87;;
11334;SDS011;5722;42.620;23.374;2022-10-31T08:23:35;13.90;;;10.30;;
11334;SDS011;5722;42.620;23.374;2022-10-31T08:26:04;16.10;;;11.13;;
11334;SDS011;5722;42.620;23.374;2022-10-31T08:28:34;13.45;;;10.48;;
11334;SDS011;5722;42.620;23.374;2022-10-31T08:31:05;16.25;;;10.38;;
11334;SDS011;5722;42.620;23.374;2022-10-31T08:33:47;16.47;;;11.33;;
11334;SDS011;5722;42.620;23.374;2022-10-31T08:36:15;17.08;;;11.02;;
11334;SDS011;5722;42.620;23.374;2022-10-31T08:38:42;22.70;;;11.23;;
11334;SDS011;5722;42.620;23.374;2022-10-31T08:41:13;17.20;;;11.50;;
11334;SDS011;5722;42.620;23.374;2022-10-31T08:43:45;14.45;;;11.27;;
11334;SDS011;5722;42.620;23.374;2022-10-31T08:46:12;19.15;;;11.43;;
11334;SDS011;5722;42.620;23.374;2022-10-31T08:48:42;18.20;;;10.18;;
11334;SDS011;5722;42.620;23.374;2022-10-31T08:54:05;16.77;;;10.50;;
11334;SDS011;5722;42.620;23.374;2022-10-31T08:56:32;16.02;;;10.13;;
11334;SDS011;5722;42.620;23.374;2022-10-31T08:59:01;18.40;;;10.65;;
11334;SDS011;5722;42.620;23.374;2022-10-31T09:01:33;18.08;;;11.30;;
11334;SDS011;5722;42.620;23.374;2022-10-31T09:04:00;16.88;;;11.38;;
11334;SDS011;5722;42.620;23.374;2022-10-31T09:06:27;20.70;;;10.13;;
11334;SDS011;5722;42.620;23.374;2022-10-31T09:08:55;18.52;;;9.80;;
11334;SDS011;5722;42.620;23.374;2022-10-31T09:11:26;17.38;;;10.13;;
11334;SDS011;5722;42.620;23.374;2022-10-31T09:13:55;17.85;;;9.95;;
11334;SDS011;5722;42.620;23.374;2022-10-31T09:16:29;18.67;;;10.23;;
11334;SDS011;5722;42.620;23.374;2022-10-31T09:18:57;22.95;;;10.07;;
11334;SDS011;5722;42.620;23.374;2022-10-31T09:21:25;15.40;;;9.57;;
11334;SDS011;5722;42.620;23.374;2022-10-31T09:23:53;15.80;;;9.30;;
11334;SDS011;5722;42.620;23.374;2022-10-31T09:26:22;19.73;;;9.73;;
11334;SDS011;5722;42.620;23.374;2022-10-31T09:28:51;16.90;;;9.40;;
11334;SDS011;5722;42.620;23.374;2022-10-31T09:31:18;16.92;;;9.35;;
11334;SDS011;5722;42.620;23.374;2022-10-31T09:33:47;18.02;;;9.13;;
11334;SDS011;5722;42.620;23.374;2022-10-31T09:36:14;15.35;;;9.45;;
11334;SDS011;5722;42.620;23.374;2022-10-31T09:39:02;14.32;;;8.85;;
11334;SDS011;5722;42.620;23.374;2022-10-31T09:41:41;15.05;;;8.15;;
11334;SDS011;5722;42.620;23.374;2022-10-31T09:44:14;11.23;;;7.45;;
11334;SDS011;5722;42.620;23.374;2022-10-31T09:46:49;16.95;;;8.65;;
11334;SDS011;5722;42.620;23.374;2022-10-31T09:52:11;15.02;;;8.70;;
11334;SDS011;5722;42.620;23.374;2022-10-31T09:54:44;13.43;;;6.90;;
11334;SDS011;5722;42.620;23.374;2022-10-31T09:57:13;12.70;;;6.57;;
11334;SDS011;5722;42.620;23.374;2022-10-31T09:59:54;12.65;;;6.28;;
11334;SDS011;5722;42.620;23.374;2022-10-31T10:02:29;12.45;;;5.38;;
11334;SDS011;5722;42.620;23.374;2022-10-31T10:04:57;8.70;;;5.22;;
11334;SDS011;5722;42.620;23.374;2022-10-31T10:07:37;13.48;;;5.10;;
11334;SDS011;5722;42.620;23.374;2022-10-31T10:10:17;8.40;;;4.75;;
11334;SDS011;5722;42.620;23.374;2022-10-31T10:12:52;12.68;;;5.35;;
11334;SDS011;5722;42.620;23.374;2022-10-31T10:15:31;14.00;;;4.05;;
11334;SDS011;5722;42.620;23.374;2022-10-31T10:18:02;7.95;;;3.70;;
11334;SDS011;5722;42.620;23.374;2022-10-31T10:20:34;8.68;;;4.03;;
11334;SDS011;5722;42.620;23.374;2022-10-31T10:23:21;9.27;;;4.10;;
11334;SDS011;5722;42.620;23.374;2022-10-31T10:25:50;7.82;;;3.85;;
11334;SDS011;5722;42.620;23.374;2022-10-31T10:28:21;9.00;;;3.90;;
11334;SDS011;5722;42.620;23.374;2022-10-31T10:30:52;9.25;;;3.85;;
11334;SDS011;5722;42.620;23.374;2022-10-31T10:33:22;10.23;;;3.45;;
11334;SDS011;5722;42.620;23.374;2022-10-31T10:35:52;6.05;;;3.17;;
11334;SDS011;5722;42.620;23.374;2022-10-31T10:38:21;8.48;;;3.42;;
11334;SDS011;5722;42.620;23.374;2022-10-31T10:40:50;5.03;;;3.20;;
11334;SDS011;5722;42.620;23.374;2022-10-31T10:43:20;12.73;;;3.58;;
11334;SDS011;5722;42.620;23.374;2022-10-31T10:45:49;9.25;;;3.17;;
11334;SDS011;5722;42.620;23.374;2022-10-31T10:48:39;9.38;;;3.65;;
11334;SDS011;5722;42.620;23.374;2022-10-31T10:51:07;7.40;;;3.42;;
11334;SDS011;5722;42.620;23.374;2022-10-31T10:53:39;7.90;;;3.60;;
11334;SDS011;5722;42.620;23.374;2022-10-31T10:56:30;6.97;;;3.10;;
11334;SDS011;5722;42.620;23.374;2022-10-31T10:59:01;10.43;;;3.40;;
11334;SDS011;5722;42.620;23.374;2022-10-31T11:01:28;5.75;;;2.90;;
11334;SDS011;5722;42.620;23.374;2022-10-31T11:03:56;6.85;;;3.05;;
11334;SDS011;5722;42.620;23.374;2022-10-31T11:06:23;8.55;;;3.17;;
11334;SDS011;5722;42.620;23.374;2022-10-31T11:08:51;7.03;;;3.15;;
11334;SDS011;5722;42.620;23.374;2022-10-31T11:11:22;9.30;;;3.58;;
11334;SDS011;5722;42.620;23.374;2022-10-31T11:13:51;5.97;;;3.15;;
11334;SDS011;5722;42.620;23.374;2022-10-31T11:16:27;4.95;;;2.78;;
11334;SDS011;5722;42.620;23.374;2022-10-31T11:19:04;5.57;;;3.08;;
11334;SDS011;5722;42.620;23.374;2022-10-31T11:21:34;6.70;;;3.08;;
11334;SDS011;5722;42.620;23.374;2022-10-31T11:24:03;9.75;;;3.30;;
11334;SDS011;5722;42.620;23.374;2022-10-31T11:26:30;10.85;;;3.17;;
11334;SDS011;5722;42.620;23.374;2022-10-31T11:29:03;7.43;;;3.30;;
11334;SDS011;5722;42.620;23.374;2022-10-31T11:31:45;7.80;;;2.80;;
11334;SDS011;5722;42.620;23.374;2022-10-31T11:34:21;5.97;;;3.05;;
11334;SDS011;5722;42.620;23.374;2022-10-31T11:36:57;7.80;;;2.75;;
11334;SDS011;5722;42.620;23.374;2022-10-31T11:39:29;5.68;;;2.80;;
11334;SDS011;5722;42.620;23.374;2022-10-31T11:42:01;8.45;;;3.40;;
11334;SDS011;5722;42.620;23.374;2022-10-31T11:44:30;4.57;;;3.08;;
11334;SDS011;5722;42.620;23.374;2022-10-31T11:47:00;8.25;;;3.20;;
11334;SDS011;5722;42.620;23.374;2022-10-31T11:49:31;8.27;;;2.60;;
11334;SDS011;5722;42.620;23.374;2022-10-31T11:52:04;7.05;;;2.72;;
11334;SDS011;5722;42.620;23.374;2022-10-31T11:54:39;19.02;;;3.72;;
11334;SDS011;5722;42.620;23.374;2022-10-31T11:57:21;9.32;;;3.38;;
11334;SDS011;5722;42.620;23.374;2022-10-31T11:59:58;8.65;;;2.88;;
11334;SDS011;5722;42.620;23.374;2022-10-31T12:02:25;8.98;;;3.13;;
11334;SDS011;5722;42.620;23.374;2022-10-31T12:05:02;7.63;;;3.20;;
11334;SDS011;5722;42.620;23.374;2022-10-31T12:07:42;8.73;;;3.25;;
11334;SDS011;5722;42.620;23.374;2022-10-31T12:10:11;10.48;;;3.35;;
11334;SDS011;5722;42.620;23.374;2022-10-31T12:12:45;5.53;;;3.03;;
11334;SDS011;5722;42.620;23.374;2022-10-31T12:15:20;8.10;;;3.20;;
11334;SDS011;5722;42.620;23.374;2022-10-31T12:17:51;5.65;;;3.42;;
11334;SDS011;5722;42.620;23.374;2022-10-31T12:20:26;10.77;;;3.30;;
11334;SDS011;5722;42.620;23.374;2022-10-31T12:22:58;12.68;;;3.33;;
11334;SDS011;5722;42.620;23.374;2022-10-31T12:25:32;8.60;;;3.30;;
11334;SDS011;5722;42.620;23.374;2022-10-31T12:28:13;5.55;;;3.13;;
11334;SDS011;5722;42.620;23.374;2022-10-31T12:30:52;11.20;;;3.58;;
11334;SDS011;5722;42.620;23.374;2022-10-31T12:33:29;12.00;;;3.72;;
11334;SDS011;5722;42.620;23.374;2022-10-31T12:36:07;9.07;;;3.15;;
11334;SDS011;5722;42.620;23.374;2022-10-31T12:38:44;10.07;;;3.03;;
11334;SDS011;5722;42.620;23.374;2022-10-31T12:41:27;7.43;;;3.30;;
11334;SDS011;5722;42.620;23.374;2022-10-31T12:44:01;5.72;;;2.97;;
11334;SDS011;5722;42.620;23.374;2022-10-31T12:46:37;10.68;;;3.53;;
11334;SDS011;5722;42.620;23.374;2022-10-31T12:49:20;8.15;;;3.45;;
11334;SDS011;5722;42.620;23.374;2022-10-31T12:51:57;9.40;;;3.17;;
11334;SDS011;5722;42.620;23.374;2022-10-31T12:54:41;9.23;;;3.00;;
11334;SDS011;5722;42.620;23.374;2022-10-31T12:57:14;8.27;;;2.90;;
11334;SDS011;5722;42.620;23.374;2022-10-31T12:59:45;9.30;;;3.33;;
11334;SDS011;5722;42.620;23.374;2022-10-31T13:02:18;7.45;;;3.20;;
11334;SDS011;5722;42.620;23.374;2022-10-31T13:04:48;10.90;;;3.60;;
11334;SDS011;5722;42.620;23.374;2022-10-31T13:07:21;8.93;;;3.47;;
11334;SDS011;5722;42.620;23.374;2022-10-31T13:09:51;8.73;;;2.92;;
11334;SDS011;5722;42.620;23.374;2022-10-31T13:12:21;12.15;;;3.25;;
11334;SDS011;5722;42.620;23.374;2022-10-31T13:14:55;5.70;;;3.00;;
11334;SDS011;5722;42.620;23.374;2022-10-31T13:17:26;7.13;;;3.45;;
11334;SDS011;5722;42.620;23.374;2022-10-31T13:19:59;8.30;;;2.97;;
11334;SDS011;5722;42.620;23.374;2022-10-31T13:22:33;7.65;;;3.22;;
11334;SDS011;5722;42.620;23.374;2022-10-31T13:25:12;8.35;;;3.42;;
11334;SDS011;5722;42.620;23.374;2022-10-31T13:27:44;5.53;;;2.92;;
11334;SDS011;5722;42.620;23.374;2022-10-31T13:30:13;11.10;;;3.28;;
11334;SDS011;5722;42.620;23.374;2022-10-31T13:32:43;9.27;;;3.38;;
11334;SDS011;5722;42.620;23.374;2022-10-31T13:35:26;7.15;;;3.45;;
11334;SDS011;5722;42.620;23.374;2022-10-31T13:40:44;11.38;;;3.30;;
11334;SDS011;5722;42.620;23.374;2022-10-31T13:43:20;11.82;;;3.35;;
11334;SDS011;5722;42.620;23.374;2022-10-31T13:45:51;9.82;;;3.55;;
11334;SDS011;5722;42.620;23.374;2022-10-31T13:51:08;13.32;;;3.70;;
11334;SDS011;5722;42.620;23.374;2022-10-31T13:53:38;22.30;;;4.20;;
11334;SDS011;5722;42.620;23.374;2022-10-31T13:56:20;13.50;;;4.00;;
11334;SDS011;5722;42.620;23.374;2022-10-31T13:59:01;12.35;;;3.63;;
11334;SDS011;5722;42.620;23.374;2022-10-31T14:01:46;9.23;;;3.60;;
11334;SDS011;5722;42.620;23.374;2022-10-31T14:04:15;8.55;;;3.30;;
11334;SDS011;5722;42.620;23.374;2022-10-31T14:06:47;19.67;;;4.20;;
11334;SDS011;5722;42.620;23.374;2022-10-31T14:09:28;22.35;;;13.13;;
11334;SDS011;5722;42.620;23.374;2022-10-31T14:12:05;15.82;;;4.30;;
11334;SDS011;5722;42.620;23.374;2022-10-31T14:14:50;10.05;;;3.60;;
11334;SDS011;5722;42.620;23.374;2022-10-31T14:17:19;11.90;;;3.63;;
11334;SDS011;5722;42.620;23.374;2022-10-31T14:22:32;16.52;;;3.95;;
11334;SDS011;5722;42.620;23.374;2022-10-31T14:25:01;11.88;;;3.53;;
11334;SDS011;5722;42.620;23.374;2022-10-31T14:27:43;10.30;;;3.75;;
11334;SDS011;5722;42.620;23.374;2022-10-31T14:30:19;18.13;;;4.20;;
11334;SDS011;5722;42.620;23.374;2022-10-31T14:33:00;27.58;;;5.07;;
11334;SDS011;5722;42.620;23.374;2022-10-31T14:35:46;33.15;;;4.85;;
11334;SDS011;5722;42.620;23.374;2022-10-31T14:38:25;34.42;;;5.30;;
11334;SDS011;5722;42.620;23.374;2022-10-31T14:41:08;31.20;;;5.03;;
11334;SDS011;5722;42.620;23.374;2022-10-31T14:44:04;30.00;;;4.88;;
11334;SDS011;5722;42.620;23.374;2022-10-31T14:46:52;19.95;;;4.65;;
11334;SDS011;5722;42.620;23.374;2022-10-31T14:52:10;19.10;;;4.25;;
11334;SDS011;5722;42.620;23.374;2022-10-31T14:54:41;18.75;;;4.75;;
11334;SDS011;5722;42.620;23.374;2022-10-31T14:57:16;14.57;;;4.82;;
11334;SDS011;5722;42.620;23.374;2022-10-31T14:59:55;11.52;;;3.92;;
11334;SDS011;5722;42.620;23.374;2022-10-31T15:02:38;23.17;;;4.88;;
11334;SDS011;5722;42.620;23.374;2022-10-31T15:05:12;16.90;;;6.55;;
11334;SDS011;5722;42.620;23.374;2022-10-31T15:07:48;22.23;;;9.57;;
11334;SDS011;5722;42.620;23.374;2022-10-31T15:10:25;25.67;;;10.60;;
11334;SDS011;5722;42.620;23.374;2022-10-31T15:13:14;26.13;;;13.65;;
11334;SDS011;5722;42.620;23.374;2022-10-31T15:15:45;29.13;;;14.60;;
11334;SDS011;5722;42.620;23.374;2022-10-31T15:18:15;31.40;;;15.05;;
11334;SDS011;5722;42.620;23.374;2022-10-31T15:20:45;28.38;;;14.27;;
11334;SDS011;5722;42.620;23.374;2022-10-31T15:23:25;22.85;;;13.80;;
11334;SDS011;5722;42.620;23.374;2022-10-31T15:26:00;19.35;;;11.50;;
11334;SDS011;5722;42.620;23.374;2022-10-31T15:31:14;23.90;;;9.43;;
11334;SDS011;5722;42.620;23.374;2022-10-31T15:34:03;17.45;;;8.43;;
11334;SDS011;5722;42.620;23.374;2022-10-31T15:36:38;26.70;;;9.20;;
11334;SDS011;5722;42.620;23.374;2022-10-31T15:39:08;16.23;;;7.40;;
11334;SDS011;5722;42.620;23.374;2022-10-31T15:41:39;18.08;;;7.65;;
11334;SDS011;5722;42.620;23.374;2022-10-31T15:44:12;21.20;;;8.38;;
11334;SDS011;5722;42.620;23.374;2022-10-31T15:46:43;21.77;;;7.05;;
11334;SDS011;5722;42.620;23.374;2022-10-31T15:49:12;17.85;;;5.85;;
11334;SDS011;5722;42.620;23.374;2022-10-31T15:51:46;24.55;;;6.53;;
11334;SDS011;5722;42.620;23.374;2022-10-31T15:54:16;17.30;;;5.90;;
11334;SDS011;5722;42.620;23.374;2022-10-31T15:56:43;13.95;;;4.95;;
11334;SDS011;5722;42.620;23.374;2022-10-31T15:59:20;11.90;;;4.55;;
11334;SDS011;5722;42.620;23.374;2022-10-31T16:01:58;19.17;;;4.93;;
11334;SDS011;5722;42.620;23.374;2022-10-31T16:04:25;16.02;;;4.68;;
11334;SDS011;5722;42.620;23.374;2022-10-31T16:07:10;14.43;;;4.85;;
11334;SDS011;5722;42.620;23.374;2022-10-31T16:09:48;20.35;;;5.35;;
11334;SDS011;5722;42.620;23.374;2022-10-31T16:12:18;21.90;;;5.68;;
11334;SDS011;5722;42.620;23.374;2022-10-31T16:14:49;28.30;;;6.30;;